Time;durP1;ratioP1;P1;durP2;ratioP2;P2;SDS_P1;SDS_P2;PMS_P1;PMS_P2;Temp;Humidity;BMP_temperature;BMP_pressure;BME280_temperature;BME280_humidity;BME280_pressure;Samples;Min_cycle;Max_cycle;Signal;HPM_P1;HPM_P2
2022/03/31 00:02:25;;;;;;;;;;;;;;;;;;;;;
2022/03/31 00:05:18;;;;;;;;;;;;;;;20.60;33.92;99746.60;103573;1320;61256;-79
2022/03/31 00:08:21;;;;;;;;;;;;;;;20.61;34.02;99741.58;102965;1326;72829;-82
2022/03/31 00:11:03;;;;;;;;;;;;;;;20.61;33.92;99734.75;103017;1324;74873;-83
2022/03/31 00:13:54;;;;;;;;;;;;;;;20.61;34.00;99729.05;103009;1326;61391;-85
2022/03/31 00:17:01;;;;;;;;;;;;;;;;;;;;;
2022/03/31 00:19:30;;;;;;;;;;;;;;;20.61;34.03;99715.83;103629;1320;72912;-84
2022/03/31 00:22:09;;;;;;;;;;;;;;;;;;;;;
2022/03/31 00:24:55;;;;;;;;;;;;;;;;;;;;;
2022/03/31 00:27:44;;;;;;;;;;;;;;;20.60;34.04;99705.14;104195;1314;61190;-84
2022/03/31 00:30:32;;;;;;;;;;;;;;;20.60;33.96;99697.66;104242;1314;72888;-83
2022/03/31 00:33:39;;;;;;;;;;;;;;;;;;;;;
2022/03/31 00:36:57;;;;;;;;;;;;;;;20.60;34.01;99684.08;103421;1318;61374;-84
2022/03/31 00:39:57;;;;;;;;;;;;;;;;;;;;;
2022/03/31 00:42:55;;;;;;;;;;;;;;;;;;;;;
2022/03/31 00:45:56;;;;;;;;;;;;;;;20.60;34.05;99695.12;103206;1320;75856;-85
2022/03/31 00:48:43;;;;;;;;;;;;;;;20.60;34.10;99687.25;103396;1320;61559;-82
2022/03/31 00:55:03;;;;;;;;;;;;;;;20.60;34.10;99685.48;102770;1326;72878;-85
2022/03/31 00:58:05;;;;;;;;;;;;;;;20.60;34.10;99689.23;102777;1326;76169;-85
2022/03/31 01:00:54;;;;;;;;;;;;;;;20.60;34.14;99689.45;102462;1332;61645;-83
2022/03/31 01:04:00;;;;;;;;;;;;;;;20.60;34.17;99690.47;102484;1332;61444;-83
2022/03/31 01:06:45;;;;;;;;;;;;;;;20.60;34.16;99687.83;102463;1332;73783;-84
2022/03/31 01:09:32;;;;;;;;;;;;;;;20.60;34.15;99681.74;102476;1332;76007;-81
2022/03/31 01:12:18;;;;;;;;;;;;;;;20.60;34.17;99677.98;102426;1332;61362;-81
2022/03/31 01:15:41;;;;;;;;;;;;;;;20.60;34.21;99671.00;102514;1329;60215;-84
2022/03/31 01:18:36;;;;;;;;;;;;;;;20.59;34.17;99664.10;102323;1334;72911;-84
2022/03/31 01:21:11;;;;;;;;;;;;;;;20.59;34.16;99651.98;102556;1332;73856;-83
2022/03/31 01:23:46;;;;;;;;;;;;;;;20.59;34.17;99645.33;102519;1332;61445;-81
2022/03/31 01:26:32;;;;;;;;;;;;;;;20.59;34.18;99644.11;102572;1331;61298;-82
2022/03/31 01:29:10;;;;;;;;;;;;;;;20.58;34.11;99644.34;102562;1331;72876;-84
2022/03/31 01:31:57;;;;;;;;;;;;;;;20.58;34.18;99651.30;102799;1323;75120;-80
2022/03/31 01:34:45;;;;;;;;;;;;;;;;;;;;;
2022/03/31 01:37:18;;;;;;;;;;;;;;;20.58;34.21;99679.20;103313;1317;61335;-88
2022/03/31 01:40:01;;;;;;;;;;;;;;;20.58;34.18;99678.69;103762;1317;74120;-85
2022/03/31 01:42:32;;;;;;;;;;;;;;;20.58;34.07;99682.45;104203;1314;75762;-83
2022/03/31 01:45:30;;;;;;;;;;;;;;;20.57;34.05;99688.75;104229;1313;61268;-84
2022/03/31 01:48:23;;;;;;;;;;;;;;;20.57;34.18;99686.80;104174;1314;61505;-82
2022/03/31 01:50:57;;;;;;;;;;;;;;;20.58;34.12;99688.02;104196;1314;72881;-82
2022/03/31 01:53:33;;;;;;;;;;;;;;;20.57;34.26;99682.14;104754;1305;74911;-85
2022/03/31 01:56:19;;;;;;;;;;;;;;;20.56;34.23;99680.27;104552;1308;61155;-82
2022/03/31 01:58:50;;;;;;;;;;;;;;;20.57;34.30;99680.06;104649;1308;61206;-85
2022/03/31 02:02:05;;;;;;;;;;;;;;;20.57;34.07;99676.13;104252;1314;71571;-83
2022/03/31 02:04:36;;;;;;;;;;;;;;;20.57;34.19;99672.21;104352;1313;75933;-83
2022/03/31 02:07:17;;;;;;;;;;;;;;;20.56;34.14;99672.61;104205;1314;61387;-85
2022/03/31 02:09:57;;;;;;;;;;;;;;;20.56;34.35;99674.21;104300;1314;61865;-83
2022/03/31 02:12:53;;;;;;;;;;;;;;;20.56;34.32;99673.66;104321;1314;73809;-84
2022/03/31 02:15:29;;;;;;;;;;;;;;;20.55;34.18;99666.60;104333;1314;75352;-85
2022/03/31 02:18:13;;;;;;;;;;;;;;;20.56;34.26;99667.64;104367;1313;61085;-87
2022/03/31 02:21:15;;;;;;;;;;;;;;;20.55;34.39;99666.81;104328;1313;61053;-85
2022/03/31 02:24:00;;;;;;;;;;;;;;;20.56;34.29;99661.04;104327;1314;72785;-89
2022/03/31 02:26:41;;;;;;;;;;;;;;;;;;;;;
2022/03/31 02:29:22;;;;;;;;;;;;;;;20.55;34.36;99660.19;104277;1311;61235;-84
2022/03/31 02:32:28;;;;;;;;;;;;;;;20.55;34.40;99649.33;103798;1319;61415;-88
2022/03/31 02:35:23;;;;;;;;;;;;;;;20.55;34.33;99640.69;103549;1320;73636;-85
2022/03/31 02:38:15;;;;;;;;;;;;;;;20.55;34.36;99629.86;103784;1319;74667;-85
2022/03/31 02:40:47;;;;;;;;;;;;;;;20.54;34.43;99627.55;104298;1314;61419;-83
2022/03/31 02:43:26;;;;;;;;;;;;;;;20.55;34.44;99629.84;104235;1314;61194;-84
2022/03/31 02:46:35;;;;;;;;;;;;;;;20.54;34.39;99635.77;104309;1314;72310;-83
2022/03/31 02:49:12;;;;;;;;;;;;;;;20.54;34.33;99641.50;104304;1314;74019;-82
2022/03/31 02:51:58;;;;;;;;;;;;;;;20.54;34.47;99642.92;104317;1314;61322;-84
2022/03/31 02:57:51;;;;;;;;;;;;;;;20.54;34.45;99651.94;104272;1313;71466;-83
2022/03/31 03:00:41;;;;;;;;;;;;;;;20.54;34.46;99644.56;104319;1314;75714;-84
2022/03/31 03:03:17;;;;;;;;;;;;;;;20.53;34.59;99639.60;104295;1314;61276;-84
2022/03/31 03:06:07;;;;;;;;;;;;;;;20.54;34.49;99641.55;104334;1313;61290;-89
2022/03/31 03:08:54;;;;;;;;;;;;;;;20.53;34.42;99644.41;104299;1314;72976;-85
2022/03/31 03:11:34;;;;;;;;;;;;;;;20.53;34.34;99651.79;104785;1305;76211;-83
2022/03/31 03:14:18;;;;;;;;;;;;;;;;;;;;;
2022/03/31 03:17:05;;;;;;;;;;;;;;;20.53;34.42;99655.38;104713;1305;61587;-83
2022/03/31 03:19:40;;;;;;;;;;;;;;;20.53;34.64;99650.19;104900;1305;72937;-84
2022/03/31 03:22:59;;;;;;;;;;;;;;;;;;;;;
2022/03/31 03:25:43;;;;;;;;;;;;;;;20.53;34.66;99657.38;104935;1305;61274;-84
2022/03/31 03:28:32;;;;;;;;;;;;;;;;;;;;;
2022/03/31 03:31:30;;;;;;;;;;;;;;;20.53;34.64;99658.25;104881;1305;73828;-87
2022/03/31 03:34:09;;;;;;;;;;;;;;;20.53;34.69;99660.90;104759;1304;74659;-86
2022/03/31 03:36:55;;;;;;;;;;;;;;;;;;;;;
2022/03/31 03:39:32;;;;;;;;;;;;;;;20.53;34.58;99663.61;104948;1305;61167;-85
2022/03/31 03:42:11;;;;;;;;;;;;;;;20.53;34.48;99663.08;104735;1305;73568;-82
2022/03/31 03:45:38;;;;;;;;;;;;;;;20.53;34.57;99663.45;104947;1305;73489;-82
2022/03/31 03:48:25;;;;;;;;;;;;;;;;;;;;;
2022/03/31 03:51:29;;;;;;;;;;;;;;;20.53;34.38;99658.62;104372;1311;61279;-83
2022/03/31 03:53:55;;;;;;;;;;;;;;;20.53;34.25;99663.41;104338;1311;74157;-83
2022/03/31 03:56:33;;;;;;;;;;;;;;;20.52;34.42;99658.29;104310;1311;75928;-89
2022/03/31 03:59:40;;;;;;;;;;;;;;;20.53;34.51;99651.65;104241;1314;61279;-86
2022/03/31 04:02:27;;;;;;;;;;;;;;;20.52;34.13;99656.34;104338;1311;60629;-85
2022/03/31 04:05:02;;;;;;;;;;;;;;;20.53;34.29;99658.62;103661;1319;72806;-82
2022/03/31 04:08:08;;;;;;;;;;;;;;;20.52;34.29;99658.29;103352;1320;74735;-84
2022/03/31 04:10:59;;;;;;;;;;;;;;;20.52;34.36;99658.65;102711;1324;61332;-84
2022/03/31 04:14:05;;;;;;;;;;;;;;;20.52;34.31;99652.09;103049;1326;61192;-87
2022/03/31 04:17:09;;;;;;;;;;;;;;;;;;;;;
2022/03/31 04:19:58;;;;;;;;;;;;;;;;;;;;;
2022/03/31 04:22:47;;;;;;;;;;;;;;;20.49;34.33;99648.08;102611;1329;61121;-85
2022/03/31 04:25:26;;;;;;;;;;;;;;;20.48;34.33;99638.12;102663;1326;61650;-84
2022/03/31 04:28:13;;;;;;;;;;;;;;;20.48;34.37;99632.43;102429;1332;72071;-84
2022/03/31 04:30:39;;;;;;;;;;;;;;;20.46;34.34;99632.03;102349;1332;75025;-82
2022/03/31 04:33:38;;;;;;;;;;;;;;;20.45;34.34;99615.46;102411;1331;61387;-84
2022/03/31 04:36:28;;;;;;;;;;;;;;;;;;;;;
2022/03/31 04:39:34;;;;;;;;;;;;;;;20.44;34.21;99630.44;102122;1332;74330;-80
2022/03/31 04:42:07;;;;;;;;;;;;;;;20.42;34.24;99625.25;101995;1334;75113;-82
2022/03/31 04:44:53;;;;;;;;;;;;;;;20.41;34.26;99634.77;102059;1333;61508;-81
2022/03/31 04:47:26;;;;;;;;;;;;;;;20.40;34.18;99622.16;102150;1328;61374;-80
2022/03/31 04:49:51;;;;;;;;;;;;;;;20.38;34.02;99634.13;102303;1331;61580;-84
2022/03/31 04:52:28;;;;;;;;;;;;;;;20.35;34.05;99634.20;102143;1330;59552;-81
2022/03/31 04:54:54;;;;;;;;;;;;;;;20.32;34.03;99629.45;102365;1328;61167;-80
2022/03/31 04:57:21;;;;;;;;;;;;;;;20.29;34.06;99633.52;102418;1328;59796;-79
2022/03/31 04:59:46;;;;;;;;;;;;;;;20.26;33.99;99636.94;102365;1329;61564;-81
2022/03/31 05:02:12;;;;;;;;;;;;;;;20.22;33.94;99635.38;102398;1328;63394;-80
2022/03/31 05:04:38;;;;;;;;;;;;;;;20.20;34.02;99638.02;103015;1326;59289;-81
2022/03/31 05:07:04;;;;;;;;;;;;;;;20.18;34.00;99643.89;103421;1324;59602;-81
2022/03/31 05:09:29;;;;;;;;;;;;;;;20.16;34.10;99636.44;102905;1321;61336;-80
2022/03/31 05:12:21;;;;;;;;;;;;;;;20.15;34.09;99641.09;102608;1322;72870;-81
2022/03/31 05:14:47;;;;;;;;;;;;;;;20.16;34.06;99637.11;102484;1328;75047;-85
2022/03/31 05:17:12;;;;;;;;;;;;;;;20.18;33.98;99631.03;102539;1328;61357;-81
2022/03/31 05:19:38;;;;;;;;;;;;;;;20.21;34.06;99631.70;102902;1318;61459;-82
2022/03/31 05:22:04;;;;;;;;;;;;;;;20.22;33.90;99638.20;103158;1320;61325;-81
2022/03/31 05:24:30;;;;;;;;;;;;;;;20.22;33.95;99639.67;103295;1319;60283;-82
2022/03/31 05:27:21;;;;;;;;;;;;;;;20.23;33.86;99640.73;103391;1319;61228;-81
2022/03/31 05:29:47;;;;;;;;;;;;;;;20.24;33.95;99643.17;102958;1323;60171;-82
2022/03/31 05:32:13;;;;;;;;;;;;;;;20.26;33.80;99635.53;103016;1323;60656;-81
2022/03/31 05:34:39;;;;;;;;;;;;;;;20.28;33.86;99627.53;102917;1323;61319;-81
2022/03/31 05:37:05;;;;;;;;;;;;;;;20.29;33.91;99617.45;103031;1322;61489;-81
2022/03/31 05:39:32;;;;;;;;;;;;;;;20.30;33.70;99618.21;102998;1323;61721;-82
2022/03/31 05:41:57;;;;;;;;;;;;;;;20.32;33.90;99617.73;103017;1323;61574;-81
2022/03/31 05:44:23;;;;;;;;;;;;;;;20.33;33.77;99615.48;103010;1322;60046;-81
2022/03/31 05:46:51;;;;;;;;;;;;;;;20.34;33.85;99615.95;102894;1323;61322;-80
2022/03/31 05:49:17;;;;;;;;;;;;;;;20.35;33.93;99616.57;102896;1323;74941;-81
2022/03/31 05:51:43;;;;;;;;;;;;;;;20.35;33.83;99617.80;102823;1320;61306;-80
2022/03/31 05:54:08;;;;;;;;;;;;;;;20.33;33.76;99619.18;103110;1319;61999;-81
2022/03/31 05:56:34;;;;;;;;;;;;;;;20.29;33.85;99617.08;103014;1320;61435;-83
2022/03/31 05:59:00;;;;;;;;;;;;;;;20.20;33.77;99613.13;103266;1319;59856;-82
2022/03/31 06:01:28;;;;;;;;;;;;;;;20.10;33.79;99612.09;102570;1320;74839;-82
2022/03/31 06:03:55;;;;;;;;;;;;;;;20.03;33.88;99615.91;102968;1318;61245;-81
2022/03/31 06:06:21;;;;;;;;;;;;;;;20.01;33.85;99621.25;102734;1317;61425;-82
2022/03/31 06:08:47;;;;;;;;;;;;;;;20.03;34.05;99618.21;103257;1316;59442;-82
2022/03/31 06:11:13;;;;;;;;;;;;;;;20.05;34.12;99622.83;103490;1316;63395;-81
2022/03/31 06:13:38;;;;;;;;;;;;;;;20.06;34.10;99624.88;103530;1316;59929;-81
2022/03/31 06:16:06;;;;;;;;;;;;;;;20.09;34.14;99625.14;103724;1316;59627;-81
2022/03/31 06:18:31;;;;;;;;;;;;;;;20.11;34.15;99624.11;103772;1315;61314;-82
2022/03/31 06:20:57;;;;;;;;;;;;;;;20.14;34.17;99628.52;103810;1314;61537;-81
2022/03/31 06:23:23;;;;;;;;;;;;;;;20.17;34.14;99630.63;103845;1314;59547;-81
2022/03/31 06:25:49;;;;;;;;;;;;;;;20.19;34.12;99634.91;103837;1316;61296;-81
2022/03/31 06:28:15;;;;;;;;;;;;;;;20.21;34.17;99633.13;103450;1314;61208;-81
2022/03/31 06:30:41;;;;;;;;;;;;;;;20.22;34.21;99633.32;103337;1316;61301;-81
2022/03/31 06:33:07;;;;;;;;;;;;;;;20.24;34.20;99638.34;103724;1316;83526;-80
2022/03/31 06:35:32;;;;;;;;;;;;;;;20.25;34.13;99637.19;103666;1316;61242;-81
2022/03/31 06:38:01;;;;;;;;;;;;;;;20.27;34.21;99634.21;103720;1316;60121;-80
2022/03/31 06:40:27;;;;;;;;;;;;;;;20.28;34.06;99631.46;103233;1316;61257;-81
2022/03/31 06:42:55;;;;;;;;;;;;;;;20.29;34.19;99632.81;103245;1315;61315;-82
2022/03/31 06:45:21;;;;;;;;;;;;;;;20.30;34.27;99639.88;103847;1313;61384;-82
2022/03/31 06:47:47;;;;;;;;;;;;;;;20.30;34.10;99639.84;102869;1314;1194987;-82
2022/03/31 06:50:13;;;;;;;;;;;;;;;20.31;34.10;99635.84;103703;1314;59813;-82
2022/03/31 06:52:39;;;;;;;;;;;;;;;20.31;34.10;99632.63;103790;1314;61300;-82
2022/03/31 06:55:05;;;;;;;;;;;;;;;20.27;34.23;99630.83;103832;1314;61850;-80
2022/03/31 06:57:32;;;;;;;;;;;;;;;20.16;34.03;99634.74;103765;1314;61337;-81
2022/03/31 06:59:57;;;;;;;;;;;;;;;20.12;34.09;99634.63;103651;1314;61387;-82
2022/03/31 07:02:24;;;;;;;;;;;;;;;20.09;34.15;99634.45;103721;1316;61449;-81
2022/03/31 07:04:50;;;;;;;;;;;;;;;20.06;34.17;99635.25;103905;1314;60732;-80
2022/03/31 07:07:16;;;;;;;;;;;;;;;20.01;34.25;99639.59;103978;1314;61348;-81
2022/03/31 07:09:42;;;;;;;;;;;;;;;20.02;34.24;99640.83;103816;1314;60630;-81
2022/03/31 07:12:07;;;;;;;;;;;;;;;20.04;34.46;99640.31;103942;1314;63518;-81
2022/03/31 07:14:37;;;;;;;;;;;;;;;20.08;34.51;99644.23;103938;1308;74339;-82
2022/03/31 07:17:03;;;;;;;;;;;;;;;20.11;34.51;99644.87;105026;1308;61052;-81
2022/03/31 07:19:29;;;;;;;;;;;;;;;20.13;34.59;99650.20;105117;1308;59349;-81
2022/03/31 07:21:55;;;;;;;;;;;;;;;20.16;34.60;99649.64;105044;1308;59333;-82
2022/03/31 07:24:20;;;;;;;;;;;;;;;20.18;34.55;99651.26;105189;1308;59554;-81
2022/03/31 07:26:45;;;;;;;;;;;;;;;20.20;34.64;99649.23;105150;1308;59428;-81
2022/03/31 07:29:12;;;;;;;;;;;;;;;20.22;34.36;99647.29;104554;1308;61434;-81
2022/03/31 07:31:38;;;;;;;;;;;;;;;20.24;34.51;99650.88;104187;1311;61448;-81
2022/03/31 07:34:29;;;;;;;;;;;;;;;20.25;34.36;99655.06;104038;1308;61605;-81
2022/03/31 07:36:56;;;;;;;;;;;;;;;20.26;34.62;99661.58;103442;1314;74658;-82
2022/03/31 07:39:22;;;;;;;;;;;;;;;20.26;34.36;99664.81;103362;1314;61388;-81
2022/03/31 07:41:48;;;;;;;;;;;;;;;20.27;34.34;99671.03;103231;1316;61457;-82
2022/03/31 07:44:13;;;;;;;;;;;;;;;20.27;34.39;99676.38;103142;1314;61378;-82
2022/03/31 07:46:40;;;;;;;;;;;;;;;20.27;34.16;99675.63;103259;1314;61466;-82
2022/03/31 07:49:05;;;;;;;;;;;;;;;20.27;34.24;99675.64;103330;1314;61321;-81
2022/03/31 07:51:31;;;;;;;;;;;;;;;20.28;34.25;99673.10;102956;1314;61468;-80
2022/03/31 07:53:57;;;;;;;;;;;;;;;20.26;34.11;99676.78;103303;1313;61413;-80
2022/03/31 07:56:25;;;;;;;;;;;;;;;20.17;34.03;99675.23;103341;1314;74470;-80
2022/03/31 07:58:51;;;;;;;;;;;;;;;20.07;34.07;99676.45;103303;1314;75600;-81
2022/03/31 08:01:18;;;;;;;;;;;;;;;19.99;34.01;99677.08;103199;1316;61419;-79
2022/03/31 08:03:44;;;;;;;;;;;;;;;19.94;34.23;99681.64;103356;1313;61310;-81
2022/03/31 08:06:10;;;;;;;;;;;;;;;19.92;34.16;99685.91;103508;1312;61267;-82
2022/03/31 08:09:08;;;;;;;;;;;;;;;19.93;34.27;99685.24;103393;1311;76120;-81
2022/03/31 08:11:33;;;;;;;;;;;;;;;19.97;34.51;99681.44;102816;1319;61877;-81
2022/03/31 08:14:01;;;;;;;;;;;;;;;19.99;34.47;99679.62;103179;1313;60672;-80
2022/03/31 08:16:28;;;;;;;;;;;;;;;20.01;34.58;99679.44;103149;1314;72823;-81
2022/03/31 08:18:54;;;;;;;;;;;;;;;20.01;34.55;99674.95;103221;1315;75042;-81
2022/03/31 08:21:20;;;;;;;;;;;;;;;20.00;34.51;99675.64;103104;1315;63199;-80
2022/03/31 08:23:46;;;;;;;;;;;;;;;19.95;34.49;99671.23;103046;1316;61333;-82
2022/03/31 08:26:11;;;;;;;;;;;;;;;19.92;34.42;99672.12;103356;1314;61628;-81
2022/03/31 08:28:40;;;;;;;;;;;;;;;19.92;34.43;99670.34;103774;1314;61305;-81
2022/03/31 08:31:06;;;;;;;;;;;;;;;19.95;34.62;99665.83;103895;1313;61385;-83
2022/03/31 08:33:31;;;;;;;;;;;;;;;20.00;34.49;99662.95;103796;1314;61210;-82
2022/03/31 08:35:57;;;;;;;;;;;;;;;20.03;34.45;99664.27;103671;1316;61319;-85
2022/03/31 08:38:28;;;;;;;;;;;;;;;20.07;34.53;99660.38;103898;1314;60318;-83
2022/03/31 08:40:54;;;;;;;;;;;;;;;20.11;34.46;99661.14;104142;1314;61399;-85
2022/03/31 08:43:20;;;;;;;;;;;;;;;20.14;34.41;99656.06;103791;1316;59802;-84
2022/03/31 08:45:45;;;;;;;;;;;;;;;20.16;34.40;99654.97;104085;1315;59532;-83
2022/03/31 08:48:18;;;;;;;;;;;;;;;20.17;34.28;99652.55;104060;1305;61338;-82
2022/03/31 08:50:44;;;;;;;;;;;;;;;20.14;34.22;99649.77;104451;1305;61238;-80
2022/03/31 08:53:09;;;;;;;;;;;;;;;20.13;34.48;99652.39;104452;1305;61422;-81
2022/03/31 08:55:35;;;;;;;;;;;;;;;20.14;34.53;99651.06;104527;1305;61270;-82
2022/03/31 08:58:02;;;;;;;;;;;;;;;20.15;34.63;99640.77;104345;1306;61374;-81
2022/03/31 09:00:33;;;;;;;;;;;;;;;20.16;34.63;99645.52;104425;1305;61307;-82
2022/03/31 09:03:00;;;;;;;;;;;;;;;20.18;34.77;99648.58;104563;1304;61292;-81
2022/03/31 09:05:26;;;;;;;;;;;;;;;20.18;34.68;99643.75;104350;1306;75171;-82
2022/03/31 09:07:56;;;;;;;;;;;;;;;20.17;34.98;99636.27;104275;1305;61259;-82
2022/03/31 09:10:52;;;;;;;;;;;;;;;20.18;35.19;99630.50;104442;1305;60100;-82
2022/03/31 09:13:19;;;;;;;;;;;;;;;20.19;35.08;99629.38;104087;1312;61109;-82
2022/03/31 09:15:57;;;;;;;;;;;;;;;20.19;35.24;99630.02;104142;1313;59855;-81
2022/03/31 09:18:23;;;;;;;;;;;;;;;20.21;35.24;99627.90;103954;1314;75145;-82
2022/03/31 09:20:52;;;;;;;;;;;;;;;20.23;35.38;99618.63;104035;1313;61366;-81
2022/03/31 09:23:18;;;;;;;;;;;;;;;20.26;35.39;99608.40;103949;1314;62162;-81
2022/03/31 09:25:44;;;;;;;;;;;;;;;20.28;35.36;99595.33;103920;1314;59543;-81
2022/03/31 09:28:16;;;;;;;;;;;;;;;20.31;35.39;99597.96;103910;1314;59590;-82
2022/03/31 09:30:45;;;;;;;;;;;;;;;20.33;35.42;99600.30;103929;1314;61150;-82
2022/03/31 09:33:11;;;;;;;;;;;;;;;20.35;35.46;99599.58;103912;1313;61549;-81
2022/03/31 09:35:36;;;;;;;;;;;;;;;20.36;35.28;99591.23;104035;1314;59685;-81
2022/03/31 09:38:14;;;;;;;;;;;;;;;20.37;35.09;99582.58;103889;1314;61909;-81
2022/03/31 09:40:40;;;;;;;;;;;;;;;20.38;35.14;99582.84;104487;1313;60110;-83
2022/03/31 09:43:05;;;;;;;;;;;;;;;20.40;35.19;99585.70;103856;1314;61581;-83
2022/03/31 09:45:41;;;;;;;;;;;;;;;20.41;35.26;99574.73;103892;1314;61366;-84
2022/03/31 09:48:16;;;;;;;;;;;;;;;20.42;35.29;99571.20;104016;1313;74719;-83
2022/03/31 09:50:42;;;;;;;;;;;;;;;20.44;35.20;99569.98;104277;1305;62870;-82
2022/03/31 09:53:07;;;;;;;;;;;;;;;20.47;35.33;99572.32;104475;1307;61308;-82
2022/03/31 09:55:33;;;;;;;;;;;;;;;20.47;35.22;99571.91;103817;1308;59852;-83
2022/03/31 09:57:59;;;;;;;;;;;;;;;20.49;35.28;99566.38;104382;1305;61306;-83
2022/03/31 10:00:24;;;;;;;;;;;;;;;20.51;35.26;99561.39;104396;1307;61404;-81
2022/03/31 10:02:51;;;;;;;;;;;;;;;20.53;35.24;99558.70;104584;1305;60173;-82
2022/03/31 10:05:16;;;;;;;;;;;;;;;20.53;35.14;99561.54;104461;1305;59564;-81
2022/03/31 10:07:44;;;;;;;;;;;;;;;20.52;35.09;99556.82;104519;1305;60499;-81
2022/03/31 10:10:09;;;;;;;;;;;;;;;20.52;35.27;99553.22;104191;1306;59866;-81
2022/03/31 10:12:41;;;;;;;;;;;;;;;20.53;35.14;99552.80;104394;1305;61253;-82
2022/03/31 10:15:12;;;;;;;;;;;;;;;20.52;35.22;99554.27;104480;1305;61151;-81
2022/03/31 10:17:37;;;;;;;;;;;;;;;20.54;35.20;99547.71;104348;1305;74288;-81
2022/03/31 10:20:38;;;;;;;;;;;;;;;20.55;35.19;99549.04;104216;1305;61300;-81
2022/03/31 10:25:49;;;;;;;;;;;;;;;20.58;35.29;99551.24;103946;1313;61147;-83
2022/03/31 10:28:18;;;;;;;;;;;;;;;20.59;35.18;99554.20;103997;1312;73053;-83
2022/03/31 10:30:57;;;;;;;;;;;;;;;20.60;35.25;99560.89;104050;1311;74891;-81
2022/03/31 10:33:44;;;;;;;;;;;;;;;20.62;35.34;99555.41;104060;1311;59628;-82
2022/03/31 10:36:13;;;;;;;;;;;;;;;20.61;35.21;99554.95;103893;1312;60310;-82
2022/03/31 10:38:55;;;;;;;;;;;;;;;20.59;35.09;99563.85;104882;1313;74380;-82
2022/03/31 10:41:27;;;;;;;;;;;;;;;20.59;35.23;99562.92;103931;1313;75931;-79
2022/03/31 10:43:56;;;;;;;;;;;;;;;20.60;35.31;99561.81;103904;1314;62393;-81
2022/03/31 10:46:28;;;;;;;;;;;;;;;20.61;35.27;99549.05;104044;1313;61392;-82
2022/03/31 10:48:55;;;;;;;;;;;;;;;20.62;35.51;99543.11;104011;1312;72576;-81
2022/03/31 10:51:30;;;;;;;;;;;;;;;20.61;35.32;99541.36;103973;1313;59880;-83
2022/03/31 10:53:56;;;;;;;;;;;;;;;20.60;35.13;99540.36;103911;1313;61447;-81
2022/03/31 10:56:24;;;;;;;;;;;;;;;20.59;35.29;99534.83;103473;1312;61776;-83
2022/03/31 10:58:52;;;;;;;;;;;;;;;20.59;35.08;99529.38;103825;1307;74349;-81
2022/03/31 11:01:22;;;;;;;;;;;;;;;20.59;35.21;99524.55;104310;1306;73475;-81
2022/03/31 11:03:48;;;;;;;;;;;;;;;20.56;35.11;99519.95;104175;1308;61341;-81
2022/03/31 11:06:14;;;;;;;;;;;;;;;20.54;35.02;99518.34;104502;1305;59627;-81
2022/03/31 11:08:49;;;;;;;;;;;;;;;20.54;34.91;99507.28;104550;1306;61381;-81
2022/03/31 11:11:21;;;;;;;;;;;;;;;20.55;35.00;99510.72;104524;1305;74913;-83
2022/03/31 11:13:46;;;;;;;;;;;;;;;20.57;34.91;99501.66;104693;1306;61323;-81
2022/03/31 11:16:15;;;;;;;;;;;;;;;20.58;34.97;99497.83;104461;1305;59653;-81
2022/03/31 11:18:42;;;;;;;;;;;;;;;20.59;34.86;99500.23;104374;1306;72812;-80
2022/03/31 11:21:10;;;;;;;;;;;;;;;20.60;35.03;99496.05;104479;1305;75799;-81
2022/03/31 11:23:44;;;;;;;;;;;;;;;20.60;35.01;99494.39;104507;1305;61219;-81
2022/03/31 11:26:09;;;;;;;;;;;;;;;20.62;35.10;99501.23;104130;1305;61515;-81
2022/03/31 11:28:35;;;;;;;;;;;;;;;20.63;35.30;99502.60;104530;1307;60886;-81
2022/03/31 11:31:06;;;;;;;;;;;;;;;20.64;35.36;99505.17;104582;1306;61184;-83
2022/03/31 11:33:33;;;;;;;;;;;;;;;20.64;35.04;99508.24;104592;1305;60591;-80
2022/03/31 11:35:58;;;;;;;;;;;;;;;20.61;34.89;99509.48;104588;1306;61285;-82
2022/03/31 11:38:24;;;;;;;;;;;;;;;20.58;35.09;99508.30;104417;1306;59846;-81
2022/03/31 11:41:12;;;;;;;;;;;;;;;20.59;34.90;99501.13;104561;1306;61383;-82
2022/03/31 11:43:38;;;;;;;;;;;;;;;20.57;35.08;99489.44;104175;1311;61364;-82
2022/03/31 11:46:04;;;;;;;;;;;;;;;20.56;35.06;99483.55;103611;1311;61808;-81
2022/03/31 11:48:29;;;;;;;;;;;;;;;20.55;35.17;99478.81;103262;1313;59855;-81
2022/03/31 11:50:58;;;;;;;;;;;;;;;20.56;35.28;99477.64;103832;1313;59527;-82
2022/03/31 11:53:28;;;;;;;;;;;;;;;20.56;35.07;99469.01;104081;1312;61454;-80
2022/03/31 11:56:00;;;;;;;;;;;;;;;20.57;35.25;99465.54;104121;1312;61301;-81
2022/03/31 11:58:27;;;;;;;;;;;;;;;20.57;35.25;99464.83;104121;1313;74297;-81
2022/03/31 12:00:53;;;;;;;;;;;;;;;20.56;35.18;99470.33;104166;1314;73592;-81
2022/03/31 12:03:18;;;;;;;;;;;;;;;20.55;35.21;99461.11;104301;1313;59442;-81
2022/03/31 12:05:44;;;;;;;;;;;;;;;20.57;35.18;99456.30;104415;1311;59730;-81
2022/03/31 12:08:11;;;;;;;;;;;;;;;20.57;35.13;99460.91;104138;1313;61214;-82
2022/03/31 12:10:36;;;;;;;;;;;;;;;20.57;35.15;99454.27;104199;1311;61307;-82
2022/03/31 12:13:05;;;;;;;;;;;;;;;20.57;35.12;99441.60;104058;1312;61276;-82
2022/03/31 12:15:33;;;;;;;;;;;;;;;20.58;34.99;99431.67;104219;1311;61279;-82
2022/03/31 12:18:01;;;;;;;;;;;;;;;20.59;35.03;99437.15;104250;1311;61223;-82
2022/03/31 12:20:27;;;;;;;;;;;;;;;20.58;35.09;99428.59;104425;1309;75168;-82
2022/03/31 12:22:59;;;;;;;;;;;;;;;20.59;35.18;99426.37;104628;1304;61225;-83
2022/03/31 12:25:28;;;;;;;;;;;;;;;20.60;35.07;99424.19;104455;1305;61605;-82
2022/03/31 12:27:59;;;;;;;;;;;;;;;20.61;34.95;99424.98;104465;1305;72764;-81
2022/03/31 12:30:26;;;;;;;;;;;;;;;20.61;35.00;99433.54;104538;1305;74816;-82
2022/03/31 12:32:52;;;;;;;;;;;;;;;20.62;35.17;99433.52;104446;1305;61203;-81
2022/03/31 12:35:40;;;;;;;;;;;;;;;20.62;34.90;99421.56;104276;1305;59595;-82
2022/03/31 12:38:11;;;;;;;;;;;;;;;20.62;35.17;99432.95;104545;1305;74380;-82
2022/03/31 12:40:39;;;;;;;;;;;;;;;20.63;35.04;99434.14;104594;1305;75863;-82
2022/03/31 12:43:19;;;;;;;;;;;;;;;20.64;34.93;99429.59;104451;1306;61377;-82
2022/03/31 12:45:47;;;;;;;;;;;;;;;20.65;35.30;99438.45;104512;1307;61153;-81
2022/03/31 12:48:21;;;;;;;;;;;;;;;20.64;35.04;99426.12;104454;1305;73691;-82
2022/03/31 12:50:47;;;;;;;;;;;;;;;20.64;34.95;99420.27;104528;1306;74746;-82
2022/03/31 12:53:23;;;;;;;;;;;;;;;20.62;34.79;99419.91;104523;1305;61218;-81
2022/03/31 12:55:52;;;;;;;;;;;;;;;20.60;34.82;99429.73;104494;1306;61376;-81
2022/03/31 12:58:18;;;;;;;;;;;;;;;20.59;34.53;99422.84;104414;1306;72131;-82
2022/03/31 13:00:51;;;;;;;;;;;;;;;20.58;34.50;99422.37;104552;1305;61476;-81
2022/03/31 13:03:19;;;;;;;;;;;;;;;20.56;34.39;99412.36;104507;1306;61333;-82
2022/03/31 13:06:13;;;;;;;;;;;;;;;20.55;34.48;99415.40;104710;1305;61555;-81
2022/03/31 13:08:46;;;;;;;;;;;;;;;20.53;34.37;99415.66;104617;1306;74144;-83
2022/03/31 13:11:21;;;;;;;;;;;;;;;20.53;34.58;99416.59;104679;1305;74798;-82
2022/03/31 13:13:47;;;;;;;;;;;;;;;20.53;34.43;99419.08;104720;1305;61247;-86
2022/03/31 13:16:16;;;;;;;;;;;;;;;20.54;34.45;99424.22;104554;1306;61135;-81
2022/03/31 13:18:44;;;;;;;;;;;;;;;20.55;34.42;99425.18;104519;1305;60000;-80
2022/03/31 13:21:10;;;;;;;;;;;;;;;20.56;34.56;99422.33;104542;1306;74584;-82
2022/03/31 13:23:35;;;;;;;;;;;;;;;20.57;34.53;99424.61;104531;1306;61411;-81
2022/03/31 13:26:01;;;;;;;;;;;;;;;20.58;34.54;99422.00;104479;1305;61275;-81
2022/03/31 13:28:27;;;;;;;;;;;;;;;20.60;34.77;99420.61;104404;1305;59305;-81
2022/03/31 13:31:04;;;;;;;;;;;;;;;20.61;34.75;99418.75;104864;1305;61381;-86
2022/03/31 13:33:50;;;;;;;;;;;;;;;20.62;34.81;99419.71;104457;1306;73970;-83
2022/03/31 13:36:31;;;;;;;;;;;;;;;20.62;34.63;99417.39;104708;1305;61303;-83
2022/03/31 13:38:57;;;;;;;;;;;;;;;20.62;34.86;99406.31;104638;1306;61647;-82
2022/03/31 13:41:33;;;;;;;;;;;;;;;20.63;34.96;99397.81;104597;1306;61288;-82
2022/03/31 13:44:01;;;;;;;;;;;;;;;20.64;35.03;99396.27;104826;1305;74947;-82
2022/03/31 13:46:29;;;;;;;;;;;;;;;20.66;35.11;99391.52;104638;1306;61974;-83